createdAt,value
2018-02-20T00:02:00.368Z,83.10
2018-02-20T00:04:27.895Z,83.10
2018-02-20T00:06:56.242Z,83.10
2018-02-20T00:09:23.778Z,83.00
2018-02-20T00:11:51.309Z,83.40
2018-02-20T00:14:19.635Z,83.80
2018-02-20T00:16:47.178Z,83.80
2018-02-20T00:19:14.712Z,84.80
2018-02-20T00:21:42.241Z,84.60
2018-02-20T00:24:09.774Z,85.10
2018-02-20T00:26:37.347Z,85.00
2018-02-20T00:29:04.913Z,85.70
2018-02-20T00:31:32.468Z,86.00
2018-02-20T00:34:00.028Z,86.00
2018-02-20T00:36:27.563Z,86.20
2018-02-20T00:38:55.109Z,86.40
2018-02-20T00:41:22.651Z,86.50
2018-02-20T00:43:50.363Z,86.80
2018-02-20T00:46:17.899Z,86.60
2018-02-20T00:48:45.437Z,86.70
2018-02-20T00:51:13.043Z,86.90
2018-02-20T00:53:40.578Z,86.90
2018-02-20T00:56:08.164Z,86.70
2018-02-20T00:58:35.772Z,86.70
2018-02-20T01:01:04.087Z,86.70
2018-02-20T01:03:31.652Z,86.60
2018-02-20T01:05:59.187Z,86.70
2018-02-20T01:08:27.489Z,87.00
2018-02-20T01:10:55.027Z,86.90
2018-02-20T01:13:23.345Z,86.70
2018-02-20T01:15:51.199Z,86.60
2018-02-20T01:18:18.806Z,86.40
2018-02-20T01:20:46.346Z,86.90
2018-02-20T01:23:13.891Z,86.50
2018-02-20T01:25:41.432Z,86.60
2018-02-20T01:28:08.993Z,86.80
2018-02-20T01:30:36.518Z,86.90
2018-02-20T01:33:04.059Z,87.10
2018-02-20T01:35:31.664Z,86.60
2018-02-20T01:37:59.199Z,86.60
2018-02-20T01:40:26.770Z,86.80
2018-02-20T01:42:54.376Z,86.80
2018-02-20T01:45:21.901Z,86.70
2018-02-20T01:47:49.434Z,86.70
2018-02-20T01:50:17.747Z,86.70
2018-02-20T01:52:45.313Z,86.70
2018-02-20T01:55:12.846Z,86.90
2018-02-20T01:57:41.134Z,87.60
2018-02-20T02:00:09.439Z,88.00
2018-02-20T02:02:37.104Z,88.00
2018-02-20T02:05:04.668Z,88.00
2018-02-20T02:07:32.209Z,88.40
2018-02-20T02:10:00.505Z,89.10
2018-02-20T02:12:28.072Z,89.10
2018-02-20T02:14:56.387Z,90.00
2018-02-20T02:17:23.954Z,90.00
2018-02-20T02:19:51.502Z,90.00
2018-02-20T02:22:19.057Z,90.00
2018-02-20T02:24:46.598Z,90.00
2018-02-20T02:27:14.897Z,89.90
2018-02-20T02:29:42.467Z,89.90
2018-02-20T02:32:10.004Z,89.60
2018-02-20T02:34:37.562Z,89.70
2018-02-20T02:37:05.101Z,89.60
2018-02-20T02:39:32.644Z,89.50
2018-02-20T02:42:00.220Z,89.40
2018-02-20T02:44:27.767Z,89.20
2018-02-20T02:46:55.410Z,89.20
2018-02-20T02:49:23.721Z,88.80
2018-02-20T02:51:51.261Z,88.80
2018-02-20T02:54:19.967Z,88.20
2018-02-20T02:56:47.503Z,88.20
2018-02-20T02:59:15.043Z,88.00
2018-02-20T03:01:42.591Z,88.00
2018-02-20T03:04:10.106Z,88.10
2018-02-20T03:06:38.454Z,88.10
2018-02-20T03:09:06.072Z,88.10
2018-02-20T03:11:33.614Z,88.10
2018-02-20T03:14:01.975Z,88.30
2018-02-20T03:16:29.518Z,88.20
2018-02-20T03:18:57.081Z,88.60
2018-02-20T03:21:24.666Z,88.70
2018-02-20T03:23:52.202Z,89.40
2018-02-20T03:26:19.814Z,88.60
2018-02-20T03:28:47.460Z,88.20
2018-02-20T03:31:15.028Z,88.20
2018-02-20T03:33:43.496Z,87.90
2018-02-20T03:36:11.047Z,88.20
2018-02-20T03:38:38.578Z,87.10
2018-02-20T03:41:06.872Z,86.80
2018-02-20T03:43:35.200Z,86.60
2018-02-20T03:46:02.745Z,86.60
2018-02-20T03:48:30.286Z,86.10
2018-02-20T03:50:58.607Z,86.20
2018-02-20T03:53:26.140Z,86.10
2018-02-20T03:55:53.694Z,86.00
2018-02-20T03:58:22.007Z,85.70
2018-02-20T04:00:49.533Z,85.70
2018-02-20T04:03:17.846Z,86.20
2018-02-20T04:05:45.404Z,86.20
2018-02-20T04:08:12.957Z,85.80
2018-02-20T04:10:41.266Z,85.70
2018-02-20T04:13:08.807Z,85.60
2018-02-20T04:15:37.125Z,85.80
2018-02-20T04:18:04.697Z,85.80
2018-02-20T04:20:32.636Z,85.90
2018-02-20T04:23:00.173Z,86.10
2018-02-20T04:25:27.711Z,86.10
2018-02-20T04:27:55.264Z,86.40
2018-02-20T04:30:22.823Z,86.30
2018-02-20T04:32:50.422Z,86.20
2018-02-20T04:35:18.209Z,86.40
2018-02-20T04:37:46.505Z,86.10
2018-02-20T04:40:14.809Z,85.80
2018-02-20T04:42:42.427Z,85.80
2018-02-20T04:45:09.987Z,85.90
2018-02-20T04:47:37.518Z,85.80
2018-02-20T04:50:05.054Z,86.10
2018-02-20T04:52:33.386Z,86.00
2018-02-20T04:55:00.924Z,86.00
2018-02-20T04:57:28.880Z,85.70
2018-02-20T04:59:56.471Z,85.40
2018-02-20T05:02:24.006Z,85.50
2018-02-20T05:04:51.660Z,85.70
2018-02-20T05:07:19.969Z,86.70
2018-02-20T05:09:47.532Z,85.90
2018-02-20T05:12:15.080Z,85.40
2018-02-20T05:14:43.515Z,84.90
2018-02-20T05:17:11.065Z,84.90
2018-02-20T05:19:38.602Z,84.90
2018-02-20T05:22:06.973Z,83.80
2018-02-20T05:24:35.282Z,83.40
2018-02-20T05:27:02.907Z,83.30
2018-02-20T05:29:30.465Z,82.20
2018-02-20T05:31:58.007Z,82.90
2018-02-20T05:34:25.672Z,83.10
2018-02-20T05:36:53.215Z,83.20
2018-02-20T05:39:20.740Z,83.10
2018-02-20T05:41:48.281Z,83.00
2018-02-20T05:44:15.830Z,83.00
2018-02-20T05:46:43.396Z,83.00
2018-02-20T05:49:10.938Z,83.00
2018-02-20T05:51:38.481Z,82.90
2018-02-20T05:54:06.797Z,83.30
2018-02-20T05:56:34.338Z,83.30
2018-02-20T05:59:02.692Z,83.60
2018-02-20T06:01:30.241Z,83.60
2018-02-20T06:03:57.833Z,83.40
2018-02-20T06:06:25.344Z,83.10
2018-02-20T06:08:52.967Z,83.00
2018-02-20T06:11:20.522Z,83.10
2018-02-20T06:13:48.076Z,82.90
2018-02-20T06:16:15.609Z,82.50
2018-02-20T06:18:43.184Z,82.10
2018-02-20T06:21:10.732Z,82.10
2018-02-20T06:23:38.302Z,82.50
2018-02-20T06:26:05.846Z,82.30
2018-02-20T06:28:33.985Z,81.50
2018-02-20T06:31:01.531Z,80.40
2018-02-20T06:33:29.072Z,80.80
2018-02-20T06:35:56.635Z,80.80
2018-02-20T06:38:24.157Z,80.50
2018-02-20T06:40:51.688Z,80.40
2018-02-20T06:43:19.231Z,80.70
2018-02-20T06:45:46.761Z,80.60
2018-02-20T06:48:15.459Z,79.70
2018-02-20T06:50:43.809Z,79.30
2018-02-20T06:53:11.311Z,79.30
2018-02-20T06:55:39.649Z,79.40
2018-02-20T06:58:07.155Z,79.20
2018-02-20T07:00:35.486Z,77.30
2018-02-20T07:03:03.034Z,77.20
2018-02-20T07:05:30.562Z,78.00
2018-02-20T07:07:58.875Z,78.30
2018-02-20T07:10:26.414Z,78.40
2018-02-20T07:12:54.746Z,77.10
2018-02-20T07:15:22.291Z,77.10
2018-02-20T07:17:49.817Z,77.00
2018-02-20T07:20:17.430Z,76.60
2018-02-20T07:22:45.011Z,76.00
2018-02-20T07:25:12.604Z,76.40
2018-02-20T07:27:40.137Z,76.50
2018-02-20T07:30:07.745Z,77.20
2018-02-20T07:32:35.300Z,75.30
2018-02-20T07:35:02.912Z,76.10
2018-02-20T07:37:30.573Z,76.00
2018-02-20T07:39:58.111Z,75.90
2018-02-20T07:42:25.712Z,75.90
2018-02-20T07:44:53.266Z,74.40
2018-02-20T07:47:20.813Z,75.30
2018-02-20T07:49:49.144Z,74.50
2018-02-20T07:52:16.704Z,74.50
2018-02-20T07:54:44.275Z,74.50
2018-02-20T07:57:11.811Z,73.90
2018-02-20T07:59:39.477Z,73.90
2018-02-20T08:02:07.082Z,74.00
2018-02-20T08:04:34.628Z,73.70
2018-02-20T08:07:02.164Z,73.20
2018-02-20T08:09:30.472Z,72.90
2018-02-20T08:11:58.011Z,72.80
2018-02-20T08:14:26.325Z,72.70
2018-02-20T08:16:54.476Z,72.70
2018-02-20T08:19:22.778Z,71.30
2018-02-20T08:21:50.331Z,71.30
2018-02-20T08:24:18.629Z,71.10
2018-02-20T08:26:46.350Z,71.10
2018-02-20T08:29:13.946Z,71.90
2018-02-20T08:31:41.549Z,71.60
2018-02-20T08:34:09.079Z,71.20
2018-02-20T08:36:36.653Z,70.90
2018-02-20T08:39:04.195Z,70.70
2018-02-20T08:41:32.482Z,69.20
2018-02-20T08:44:00.785Z,68.90
2018-02-20T08:46:28.328Z,68.90
2018-02-20T08:48:56.636Z,68.90
2018-02-20T08:51:24.276Z,68.90
2018-02-20T08:53:51.968Z,68.80
2018-02-20T08:56:19.518Z,69.50
2018-02-20T08:58:47.826Z,69.20
2018-02-20T09:01:15.375Z,69.20
2018-02-20T09:03:42.962Z,68.70
2018-02-20T09:06:10.503Z,68.80
2018-02-20T09:08:38.045Z,68.60
2018-02-20T09:11:05.548Z,68.40
2018-02-20T09:13:33.158Z,67.70
2018-02-20T09:16:00.759Z,67.60
2018-02-20T09:18:29.105Z,67.50
2018-02-20T09:20:56.627Z,67.60
2018-02-20T09:23:24.171Z,67.20
2018-02-20T09:25:52.499Z,68.10
2018-02-20T09:28:20.448Z,68.00
2018-02-20T09:30:47.987Z,68.10
2018-02-20T09:33:16.316Z,67.90
2018-02-20T09:35:44.198Z,67.80
2018-02-20T09:38:11.776Z,68.10
2018-02-20T09:40:39.345Z,67.90
2018-02-20T09:43:06.912Z,68.60
2018-02-20T09:45:34.463Z,68.80
2018-02-20T09:48:02.015Z,68.20
2018-02-20T09:50:29.557Z,68.30
2018-02-20T09:52:57.118Z,67.30
2018-02-20T09:55:24.656Z,65.10
2018-02-20T09:57:52.193Z,66.90
2018-02-20T10:00:19.733Z,67.20
2018-02-20T10:02:47.296Z,67.10
2018-02-20T10:05:15.149Z,67.20
2018-02-20T10:07:42.697Z,65.30
2018-02-20T10:10:10.994Z,64.50
2018-02-20T10:12:38.544Z,64.40
2018-02-20T10:15:06.853Z,62.80
2018-02-20T10:17:34.417Z,62.80
2018-02-20T10:20:01.961Z,64.00
2018-02-20T10:22:30.262Z,64.10
2018-02-20T10:24:57.814Z,64.10
2018-02-20T10:27:26.222Z,64.80
2018-02-20T10:29:53.797Z,64.70
2018-02-20T10:32:21.363Z,63.70
2018-02-20T10:34:48.900Z,63.70
2018-02-20T10:37:16.454Z,63.90
2018-02-20T10:39:44.778Z,65.70
2018-02-20T10:42:12.509Z,65.70
2018-02-20T10:44:41.016Z,66.80
2018-02-20T10:47:08.637Z,66.80
2018-02-20T10:49:36.217Z,66.40
2018-02-20T10:52:03.902Z,65.10
2018-02-20T10:54:32.295Z,65.10
2018-02-20T10:56:59.883Z,65.10
2018-02-20T10:59:27.644Z,64.60
2018-02-20T11:01:55.187Z,61.50
2018-02-20T11:04:23.620Z,60.40
2018-02-20T11:06:51.220Z,60.40
2018-02-20T11:09:18.786Z,60.90
2018-02-20T11:11:46.421Z,63.00
2018-02-20T11:14:14.078Z,63.80
2018-02-20T11:16:41.677Z,63.90
2018-02-20T11:19:09.286Z,64.80
2018-02-20T11:21:36.980Z,65.80
2018-02-20T11:24:04.641Z,66.50
2018-02-20T11:26:32.284Z,65.00
2018-02-20T11:28:59.822Z,64.90
2018-02-20T11:31:27.461Z,64.90
2018-02-20T11:33:55.002Z,62.70
2018-02-20T11:36:22.596Z,63.60
2018-02-20T11:38:50.243Z,63.90
2018-02-20T11:41:17.901Z,62.60
2018-02-20T11:43:45.533Z,63.20
2018-02-20T11:46:13.897Z,61.80
2018-02-20T11:48:41.637Z,61.80
2018-02-20T11:51:09.184Z,60.90
2018-02-20T11:53:36.742Z,61.50
2018-02-20T11:56:04.440Z,60.50
2018-02-20T11:58:32.080Z,60.60
2018-02-20T12:00:59.660Z,60.20
2018-02-20T12:03:27.263Z,60.80
2018-02-20T12:05:54.936Z,60.60
2018-02-20T12:08:22.620Z,61.20
2018-02-20T12:10:50.917Z,61.20
2018-02-20T12:13:18.554Z,61.20
2018-02-20T12:15:46.369Z,60.20
2018-02-20T12:18:13.893Z,59.70
2018-02-20T12:20:41.854Z,59.40
2018-02-20T12:23:09.619Z,59.40
2018-02-20T12:25:37.191Z,59.50
2018-02-20T12:28:04.740Z,59.20
2018-02-20T12:30:32.280Z,58.80
2018-02-20T12:32:59.855Z,59.30
2018-02-20T12:35:27.400Z,59.90
2018-02-20T12:37:54.932Z,59.60
2018-02-20T12:40:23.245Z,59.10
2018-02-20T12:42:50.778Z,58.90
2018-02-20T12:45:18.338Z,57.30
2018-02-20T12:47:45.879Z,57.70
2018-02-20T12:50:13.422Z,56.40
2018-02-20T12:52:41.832Z,56.90
2018-02-20T12:55:09.385Z,58.10
2018-02-20T12:57:36.972Z,57.50
2018-02-20T13:00:04.500Z,58.20
2018-02-20T13:02:32.039Z,57.90
2018-02-20T13:05:00.341Z,58.60
2018-02-20T13:07:27.892Z,58.60
2018-02-20T13:09:56.405Z,58.70
2018-02-20T13:12:23.944Z,58.70
2018-02-20T13:14:51.570Z,59.10
2018-02-20T13:17:19.195Z,59.30
2018-02-20T13:19:46.847Z,58.50
2018-02-20T13:22:15.168Z,57.80
2018-02-20T13:24:42.727Z,57.80
2018-02-20T13:27:10.283Z,57.90
2018-02-20T13:29:37.842Z,57.50
2018-02-20T13:32:05.456Z,56.00
2018-02-20T13:34:33.110Z,57.30
2018-02-20T13:37:00.656Z,58.00
2018-02-20T13:39:28.224Z,58.10
2018-02-20T13:41:55.787Z,57.30
2018-02-20T13:44:23.330Z,56.20
2018-02-20T13:46:51.196Z,56.30
2018-02-20T13:49:18.711Z,56.10
2018-02-20T13:51:46.263Z,56.30
2018-02-20T13:54:13.798Z,57.20
2018-02-20T13:56:41.375Z,57.70
2018-02-20T13:59:08.948Z,57.00
2018-02-20T14:01:36.485Z,57.00
2018-02-20T14:04:04.043Z,57.30
2018-02-20T14:06:32.405Z,56.40
2018-02-20T14:08:59.944Z,56.40
2018-02-20T14:11:27.547Z,56.60
2018-02-20T14:13:55.182Z,56.80
2018-02-20T14:16:22.722Z,56.40
2018-02-20T14:18:50.279Z,56.90
2018-02-20T14:21:17.883Z,56.60
2018-02-20T14:23:45.470Z,56.40
2018-02-20T14:26:13.014Z,56.80
2018-02-20T14:28:40.623Z,56.50
2018-02-20T14:31:08.935Z,56.80
2018-02-20T14:33:36.484Z,56.80
2018-02-20T14:36:04.075Z,56.40
2018-02-20T14:38:31.628Z,56.70
2018-02-20T14:40:59.170Z,56.30
2018-02-20T14:43:26.729Z,56.70
2018-02-20T14:45:55.026Z,57.10
2018-02-20T14:48:22.618Z,57.10
2018-02-20T14:50:50.177Z,56.70
2018-02-20T14:53:17.716Z,57.70
2018-02-20T14:55:45.268Z,57.50
2018-02-20T14:58:13.572Z,58.90
2018-02-20T15:00:41.389Z,58.30
2018-02-20T15:03:08.925Z,58.50
2018-02-20T15:05:36.467Z,58.90
2018-02-20T15:08:03.992Z,59.00
2018-02-20T15:10:31.552Z,59.30
2018-02-20T15:12:59.206Z,60.70
2018-02-20T15:15:26.766Z,59.30
2018-02-20T15:17:54.326Z,60.20
2018-02-20T15:20:21.854Z,61.10
2018-02-20T15:22:50.202Z,62.50
2018-02-20T15:25:18.067Z,62.50
2018-02-20T15:27:45.650Z,62.10
2018-02-20T15:30:13.244Z,62.50
2018-02-20T15:32:40.932Z,63.00
2018-02-20T15:35:08.532Z,63.70
2018-02-20T15:37:37.033Z,64.20
2018-02-20T15:40:04.627Z,64.20
2018-02-20T15:42:32.938Z,65.20
2018-02-20T15:45:00.477Z,65.10
2018-02-20T15:47:28.854Z,65.70
2018-02-20T15:49:57.258Z,65.60
2018-02-20T15:52:24.891Z,65.60
2018-02-20T15:54:52.433Z,65.70
2018-02-20T15:57:20.036Z,65.30
2018-02-20T15:59:47.642Z,65.60
2018-02-20T16:02:15.233Z,65.70
2018-02-20T16:04:42.882Z,65.80
2018-02-20T16:07:10.482Z,65.40
2018-02-20T16:09:38.071Z,65.10
2018-02-20T16:12:06.450Z,64.80
2018-02-20T16:14:34.817Z,65.30
2018-02-20T16:17:02.391Z,65.20
2018-02-20T16:19:30.019Z,65.20
2018-02-20T16:21:57.570Z,64.30
2018-02-20T16:24:25.107Z,63.50
2018-02-20T16:26:53.436Z,64.20
2018-02-20T16:29:20.977Z,64.20
2018-02-20T16:31:48.631Z,64.50
2018-02-20T16:34:16.234Z,64.20
2018-02-20T16:36:43.775Z,63.90
2018-02-20T16:39:11.347Z,63.50
2018-02-20T16:41:38.958Z,64.20
2018-02-20T16:44:06.505Z,65.20
2018-02-20T16:46:34.051Z,65.70
2018-02-20T16:49:01.703Z,66.10
2018-02-20T16:51:29.288Z,66.50
2018-02-20T16:53:56.826Z,65.40
2018-02-20T16:56:25.133Z,65.30
2018-02-20T16:58:52.677Z,66.10
2018-02-20T17:01:20.218Z,65.90
2018-02-20T17:03:48.558Z,67.40
2018-02-20T17:06:16.082Z,67.30
2018-02-20T17:08:43.695Z,69.00
2018-02-20T17:11:11.251Z,68.30
2018-02-20T17:13:38.785Z,66.50
2018-02-20T17:16:06.342Z,66.30
2018-02-20T17:18:33.877Z,66.00
2018-02-20T17:21:01.431Z,65.50
2018-02-20T17:23:28.992Z,65.20
2018-02-20T17:25:56.576Z,65.00
2018-02-20T17:28:24.172Z,65.50
2018-02-20T17:30:52.484Z,65.50
2018-02-20T17:33:20.016Z,65.40
2018-02-20T17:35:48.327Z,65.00
2018-02-20T17:38:15.883Z,64.80
2018-02-20T17:40:43.447Z,64.50
2018-02-20T17:43:11.013Z,64.80
2018-02-20T17:45:38.563Z,64.80
2018-02-20T17:48:06.877Z,65.20
2018-02-20T17:50:34.427Z,65.10
2018-02-20T17:53:02.010Z,65.30
2018-02-20T17:55:29.554Z,66.30
2018-02-20T17:57:57.115Z,69.40
2018-02-20T18:00:24.712Z,69.50
2018-02-20T18:02:52.277Z,70.40
2018-02-20T18:05:19.867Z,69.30
2018-02-20T18:07:47.410Z,71.10
2018-02-20T18:10:15.114Z,70.70
2018-02-20T18:12:42.868Z,70.10
2018-02-20T18:15:10.410Z,69.50
2018-02-20T18:17:37.986Z,69.50
2018-02-20T18:20:05.557Z,69.50
2018-02-20T18:22:33.096Z,69.60
2018-02-20T18:25:00.702Z,69.60
2018-02-20T18:27:28.251Z,70.20
2018-02-20T18:29:55.838Z,70.20
2018-02-20T18:32:23.402Z,70.50
2018-02-20T18:34:50.950Z,71.40
2018-02-20T18:37:18.495Z,71.60
2018-02-20T18:39:46.157Z,72.00
2018-02-20T18:42:13.751Z,72.50
2018-02-20T18:44:41.307Z,73.50
2018-02-20T18:47:09.618Z,73.90
2018-02-20T18:49:37.153Z,73.90
2018-02-20T18:52:04.770Z,74.40
2018-02-20T18:54:33.876Z,75.90
2018-02-20T18:57:01.457Z,75.90
2018-02-20T18:59:29.741Z,76.80
2018-02-20T19:01:57.311Z,76.70
2018-02-20T19:04:24.858Z,77.20
2018-02-20T19:06:53.512Z,77.60
2018-02-20T19:09:21.994Z,77.60
2018-02-20T19:11:49.605Z,77.90
2018-02-20T19:14:17.168Z,78.10
2018-02-20T19:16:45.490Z,78.30
2018-02-20T19:19:13.961Z,78.30
2018-02-20T19:21:42.260Z,78.20
2018-02-20T19:24:09.827Z,78.20
2018-02-20T19:26:37.378Z,78.20
2018-02-20T19:29:04.958Z,78.90
2018-02-20T19:31:32.529Z,79.30
2018-02-20T19:34:00.076Z,79.30
2018-02-20T19:36:27.612Z,79.60
2018-02-20T19:38:55.163Z,80.10
2018-02-20T19:41:27.497Z,80.10
2018-02-20T19:43:55.122Z,80.10
2018-02-20T19:46:23.464Z,80.00
2018-02-20T19:48:51.011Z,80.00
2018-02-20T19:51:18.580Z,79.90
2018-02-20T19:53:46.115Z,79.60
2018-02-20T19:56:14.049Z,79.40
2018-02-20T19:58:41.594Z,79.50
2018-02-20T20:01:09.223Z,79.50
2018-02-20T20:03:36.859Z,79.70
2018-02-20T20:06:05.228Z,80.60
2018-02-20T20:08:33.113Z,80.60
2018-02-20T20:11:01.501Z,80.10
2018-02-20T20:13:29.862Z,79.90
2018-02-20T20:15:57.449Z,79.90
2018-02-20T20:18:25.797Z,80.00
2018-02-20T20:20:53.399Z,79.90
2018-02-20T20:23:21.764Z,80.00
2018-02-20T20:25:49.380Z,79.90
2018-02-20T20:28:16.940Z,80.10
2018-02-20T20:30:44.641Z,79.90
2018-02-20T20:33:12.255Z,80.10
2018-02-20T20:35:40.576Z,80.40
2018-02-20T20:38:08.185Z,80.40
2018-02-20T20:40:35.780Z,80.50
2018-02-20T20:43:04.122Z,80.60
2018-02-20T20:45:31.760Z,80.60
2018-02-20T20:47:59.325Z,80.50
2018-02-20T20:50:26.932Z,80.90
2018-02-20T20:52:54.483Z,80.80
2018-02-20T20:55:22.629Z,80.70
2018-02-20T20:57:50.212Z,80.70
2018-02-20T21:00:17.792Z,81.00
2018-02-20T21:02:45.348Z,81.50
2018-02-20T21:05:12.959Z,81.60
2018-02-20T21:07:40.611Z,82.00
2018-02-20T21:10:08.183Z,82.30
2018-02-20T21:12:36.512Z,83.20
2018-02-20T21:15:04.064Z,82.30
2018-02-20T21:17:31.619Z,81.10
2018-02-20T21:19:59.936Z,81.40
2018-02-20T21:22:27.526Z,81.40
2018-02-20T21:24:55.143Z,81.50
2018-02-20T21:27:22.688Z,81.80
2018-02-20T21:29:50.991Z,81.90
2018-02-20T21:32:18.553Z,81.80
2018-02-20T21:34:46.107Z,82.20
2018-02-20T21:37:14.434Z,82.00
2018-02-20T21:39:41.981Z,81.90
2018-02-20T21:42:09.525Z,81.60
2018-02-20T21:44:37.084Z,81.70
2018-02-20T21:47:05.438Z,81.20
2018-02-20T21:49:32.987Z,81.20
2018-02-20T21:52:00.522Z,81.20
2018-02-20T21:54:28.063Z,81.20
2018-02-20T21:56:56.375Z,81.10
2018-02-20T21:59:23.953Z,81.10
2018-02-20T22:01:51.617Z,81.10
2018-02-20T22:04:19.162Z,80.90
2018-02-20T22:06:46.712Z,80.50
2018-02-20T22:09:15.037Z,80.50
2018-02-20T22:11:42.611Z,80.50
2018-02-20T22:14:10.170Z,80.30
2018-02-20T22:16:37.727Z,80.70
2018-02-20T22:19:05.278Z,80.70
2018-02-20T22:21:32.847Z,80.00
2018-02-20T22:24:00.797Z,79.40
2018-02-20T22:26:28.363Z,79.00
2018-02-20T22:28:56.700Z,78.70
2018-02-20T22:31:24.250Z,78.70
2018-02-20T22:33:51.793Z,78.80
2018-02-20T22:36:19.397Z,78.60
2018-02-20T22:38:47.202Z,78.80
2018-02-20T22:41:14.595Z,78.40
2018-02-20T22:43:42.134Z,77.70
2018-02-20T22:46:10.447Z,77.70
2018-02-20T22:48:38.160Z,77.70
2018-02-20T22:51:05.702Z,77.70
2018-02-20T22:53:33.255Z,77.60
2018-02-20T22:56:00.814Z,77.60
2018-02-20T22:58:28.352Z,77.60
2018-02-20T23:00:56.697Z,77.50
2018-02-20T23:03:24.254Z,77.50
2018-02-20T23:05:51.826Z,77.60
2018-02-20T23:08:19.388Z,77.90
2018-02-20T23:10:47.715Z,78.20
2018-02-20T23:13:16.051Z,77.60
2018-02-20T23:15:43.615Z,77.60
2018-02-20T23:18:11.162Z,77.60
2018-02-20T23:20:38.706Z,77.20
2018-02-20T23:23:06.251Z,77.10
2018-02-20T23:25:34.589Z,76.40
2018-02-20T23:28:02.106Z,76.40
2018-02-20T23:30:30.406Z,76.70
2018-02-20T23:32:57.933Z,76.60
2018-02-20T23:35:25.460Z,76.40
2018-02-20T23:37:53.024Z,75.90
2018-02-20T23:40:20.589Z,75.00
2018-02-20T23:42:48.128Z,74.80
2018-02-20T23:45:15.636Z,74.10
2018-02-20T23:47:43.300Z,74.10
2018-02-20T23:50:10.869Z,74.10
2018-02-20T23:52:38.397Z,73.40
2018-02-20T23:55:05.951Z,73.10
2018-02-20T23:57:33.490Z,73.40
